createdAt,value
2022-08-11T00:01:52.767Z,15.40
2022-08-11T00:05:56.837Z,15.40
2022-08-11T00:10:01.324Z,15.30
2022-08-11T00:14:13.151Z,15.30
2022-08-11T00:18:17.380Z,15.20
2022-08-11T00:22:23.636Z,15.10
2022-08-11T00:26:27.773Z,15.10
2022-08-11T00:30:39.715Z,15.10
2022-08-11T00:34:46.471Z,15.00
2022-08-11T00:38:53.000Z,15.00
2022-08-11T00:43:07.400Z,15.00
2022-08-11T00:47:33.407Z,14.90
2022-08-11T00:52:03.764Z,14.90
2022-08-11T00:56:29.979Z,14.90
2022-08-11T01:01:08.009Z,14.80
2022-08-11T01:05:41.338Z,14.80
2022-08-11T01:09:52.551Z,14.80
2022-08-11T01:14:10.131Z,14.80
2022-08-11T01:18:28.467Z,14.80
2022-08-11T01:23:08.758Z,14.70
2022-08-11T01:27:49.092Z,14.70
2022-08-11T01:32:28.021Z,14.60
2022-08-11T01:36:45.409Z,14.60
2022-08-11T01:42:10.876Z,14.60
2022-08-11T01:46:31.364Z,14.50
2022-08-11T01:50:33.454Z,14.50
2022-08-11T01:54:49.937Z,14.40
2022-08-11T01:59:16.763Z,14.40
2022-08-11T02:03:36.839Z,14.40
2022-08-11T02:08:06.223Z,14.30
2022-08-11T02:12:22.947Z,14.30
2022-08-11T02:16:25.267Z,14.20
2022-08-11T02:21:00.626Z,14.20
2022-08-11T02:25:18.767Z,14.10
2022-08-11T02:29:33.004Z,14.00
2022-08-11T02:33:37.096Z,14.00
2022-08-11T02:38:07.813Z,13.90
2022-08-11T02:42:35.976Z,13.90
2022-08-11T02:47:09.914Z,13.80
2022-08-11T02:51:33.872Z,13.80
2022-08-11T02:56:09.570Z,13.70
2022-08-11T03:00:16.601Z,13.70
2022-08-11T03:04:37.702Z,13.70
2022-08-11T03:09:38.735Z,13.60
2022-08-11T03:14:37.288Z,13.60
2022-08-11T03:18:57.471Z,13.50
2022-08-11T03:22:59.614Z,13.50
2022-08-11T03:27:11.286Z,13.50
2022-08-11T03:31:30.540Z,13.50
2022-08-11T03:35:40.831Z,13.50
2022-08-11T03:40:38.361Z,13.40
2022-08-11T03:45:00.515Z,13.40
2022-08-11T03:49:25.560Z,13.40
2022-08-11T03:53:40.086Z,13.50
2022-08-11T03:58:16.203Z,13.70
2022-08-11T04:02:36.293Z,14.30
2022-08-11T04:06:44.529Z,15.40
2022-08-11T04:11:11.725Z,16.90
2022-08-11T04:16:11.444Z,18.40
2022-08-11T04:20:24.304Z,19.90
2022-08-11T04:24:50.590Z,21.30
2022-08-11T04:29:09.740Z,22.40
2022-08-11T04:33:37.821Z,23.70
2022-08-11T04:37:55.502Z,25.10
2022-08-11T04:42:41.390Z,26.30
2022-08-11T04:46:57.775Z,27.60
2022-08-11T04:51:52.369Z,28.70
2022-08-11T04:56:38.226Z,30.00
2022-08-11T05:01:24.037Z,30.90
2022-08-11T05:05:41.268Z,31.00
2022-08-11T05:10:30.126Z,30.50
2022-08-11T05:15:03.281Z,31.10
2022-08-11T05:19:24.925Z,32.80
2022-08-11T05:23:47.298Z,34.30
2022-08-11T05:28:30.561Z,35.90
2022-08-11T05:33:01.399Z,36.80
2022-08-11T05:37:25.775Z,37.70
2022-08-11T05:41:50.594Z,38.30
2022-08-11T05:46:26.210Z,38.70
2022-08-11T05:50:47.546Z,39.50
2022-08-11T05:55:12.914Z,39.30
2022-08-11T05:59:18.613Z,36.90
2022-08-11T06:03:27.394Z,31.90
2022-08-11T06:07:48.856Z,28.60
2022-08-11T06:11:53.870Z,26.30
2022-08-11T06:15:57.452Z,25.30
2022-08-11T06:20:07.033Z,24.00
2022-08-11T06:24:14.496Z,22.40
2022-08-11T06:28:21.111Z,21.60
2022-08-11T06:32:32.074Z,20.70
2022-08-11T06:37:13.951Z,20.20
2022-08-11T06:41:32.522Z,19.90
2022-08-11T06:45:41.576Z,19.30
2022-08-11T06:50:05.268Z,19.00
2022-08-11T06:54:13.789Z,19.10
2022-08-11T06:58:37.781Z,19.10
2022-08-11T07:02:51.920Z,19.20
2022-08-11T07:07:42.190Z,19.20
2022-08-11T07:12:21.369Z,19.00
2022-08-11T07:16:29.118Z,19.10
2022-08-11T07:20:51.923Z,19.20
2022-08-11T07:25:30.406Z,19.20
2022-08-11T07:29:35.355Z,19.20
2022-08-11T07:34:06.499Z,19.40
2022-08-11T07:38:25.273Z,19.50
2022-08-11T07:42:37.468Z,19.70
2022-08-11T07:47:01.179Z,19.90
2022-08-11T07:51:22.846Z,20.00
2022-08-11T07:55:51.058Z,20.00
2022-08-11T08:00:07.699Z,20.20
2022-08-11T08:04:37.769Z,20.30
2022-08-11T08:09:03.398Z,20.30
2022-08-11T08:13:25.958Z,20.50
2022-08-11T08:18:20.449Z,20.40
2022-08-11T08:22:38.387Z,20.70
2022-08-11T08:26:52.644Z,20.80
2022-08-11T08:30:56.463Z,20.80
2022-08-11T08:34:59.337Z,20.90
2022-08-11T08:39:01.422Z,20.90
2022-08-11T08:43:10.594Z,20.90
2022-08-11T08:47:42.123Z,20.80
2022-08-11T08:52:02.479Z,20.90
2022-08-11T08:56:08.102Z,21.20
2022-08-11T09:00:12.619Z,21.40
2022-08-11T09:04:20.903Z,21.60
2022-08-11T09:08:24.385Z,21.70
2022-08-11T09:12:38.111Z,21.70
2022-08-11T09:16:41.457Z,21.80
2022-08-11T09:20:47.300Z,22.00
2022-08-11T09:25:10.116Z,22.10
2022-08-11T09:29:13.014Z,22.20
2022-08-11T09:33:17.376Z,22.10
2022-08-11T09:37:54.013Z,21.80
2022-08-11T09:42:04.164Z,21.80
2022-08-11T09:46:07.360Z,22.40
2022-08-11T09:50:10.440Z,22.70
2022-08-11T09:54:13.093Z,22.70
2022-08-11T09:58:42.819Z,22.70
2022-08-11T10:02:48.651Z,22.30
2022-08-11T10:07:04.227Z,22.20
2022-08-11T10:11:11.560Z,22.50
2022-08-11T10:15:34.371Z,22.80
2022-08-11T10:19:38.409Z,22.80
2022-08-11T10:24:01.074Z,23.00
2022-08-11T10:28:33.117Z,23.40
2022-08-11T10:32:58.725Z,23.80
2022-08-11T10:37:07.266Z,23.80
2022-08-11T10:41:37.477Z,23.80
2022-08-11T10:46:30.719Z,23.70
2022-08-11T10:50:52.536Z,23.40
2022-08-11T10:55:14.116Z,23.50
2022-08-11T10:59:17.018Z,23.90
2022-08-11T11:03:29.168Z,23.70
2022-08-11T11:08:27.160Z,23.30
2022-08-11T11:12:50.923Z,23.10
2022-08-11T11:17:14.031Z,22.90
2022-08-11T11:21:20.745Z,23.10
2022-08-11T11:26:06.660Z,23.10
2022-08-11T11:30:11.671Z,23.30
2022-08-11T11:34:53.182Z,23.80
2022-08-11T11:38:57.668Z,24.00
2022-08-11T11:43:01.486Z,23.20
2022-08-11T11:47:04.874Z,22.60
2022-08-11T11:51:07.483Z,22.50
2022-08-11T11:55:10.806Z,22.80
2022-08-11T11:59:33.375Z,23.30
2022-08-11T12:03:38.073Z,23.30
2022-08-11T12:08:10.617Z,22.90
2022-08-11T12:12:34.015Z,22.50
2022-08-11T12:16:39.150Z,22.70
2022-08-11T12:20:42.586Z,23.10
2022-08-11T12:25:05.338Z,23.00
2022-08-11T12:29:10.365Z,23.40
2022-08-11T12:33:13.742Z,23.60
2022-08-11T12:38:09.897Z,23.70
2022-08-11T12:42:35.982Z,23.80
2022-08-11T12:46:43.019Z,24.10
2022-08-11T12:51:06.204Z,24.80
2022-08-11T12:55:36.632Z,24.20
2022-08-11T12:59:58.948Z,23.50
2022-08-11T13:04:19.809Z,23.10
2022-08-11T13:08:25.176Z,23.30
2022-08-11T13:12:48.520Z,23.70
2022-08-11T13:17:10.383Z,24.40
2022-08-11T13:21:20.700Z,24.20
2022-08-11T13:25:25.929Z,23.50
2022-08-11T13:29:29.559Z,23.00
2022-08-11T13:33:33.501Z,22.90
2022-08-11T13:38:27.280Z,23.30
2022-08-11T13:42:01.313Z,23.90
2022-08-11T13:46:23.003Z,23.70
2022-08-11T13:50:45.384Z,23.20
2022-08-11T13:54:49.805Z,22.90
2022-08-11T13:58:53.979Z,22.70
2022-08-11T14:02:58.270Z,22.60
2022-08-11T14:07:05.367Z,22.80
2022-08-11T14:12:21.054Z,23.40
2022-08-11T14:15:50.971Z,24.10
2022-08-11T14:19:54.417Z,24.50
2022-08-11T14:24:01.409Z,25.00
2022-08-11T14:28:32.201Z,25.10
2022-08-11T14:32:28.865Z,24.90
2022-08-11T14:36:44.039Z,24.40
2022-08-11T14:41:07.650Z,24.10
2022-08-11T14:45:54.853Z,23.70
2022-08-11T14:50:11.027Z,23.40
2022-08-11T14:54:34.866Z,23.10
2022-08-11T14:58:37.420Z,23.10
2022-08-11T15:02:58.988Z,23.10
2022-08-11T15:07:02.192Z,23.00
2022-08-11T15:11:24.892Z,22.70
2022-08-11T15:16:05.868Z,22.70
2022-08-11T15:20:31.649Z,22.70
2022-08-11T15:24:36.631Z,22.70
2022-08-11T15:29:06.037Z,22.70
2022-08-11T15:33:30.280Z,22.60
2022-08-11T15:37:35.730Z,22.60
2022-08-11T15:42:06.077Z,22.40
2022-08-11T15:46:21.483Z,22.20
2022-08-11T15:50:31.582Z,22.10
2022-08-11T15:54:36.454Z,21.90
2022-08-11T15:59:33.732Z,21.90
2022-08-11T16:04:06.844Z,21.70
2022-08-11T16:08:15.185Z,21.70
2022-08-11T16:12:21.195Z,21.70
2022-08-11T16:16:23.763Z,21.70
2022-08-11T16:20:28.282Z,21.60
2022-08-11T16:27:02.605Z,21.50
2022-08-11T16:28:57.990Z,21.30
2022-08-11T16:33:01.428Z,21.10
2022-08-11T16:37:43.091Z,20.90
2022-08-11T16:42:06.807Z,20.70
2022-08-11T16:46:28.847Z,20.70
2022-08-11T16:50:31.185Z,20.70
2022-08-11T16:54:35.445Z,20.70
2022-08-11T16:58:58.358Z,20.70
2022-08-11T17:03:21.168Z,20.60
2022-08-11T17:07:44.490Z,20.40
2022-08-11T17:12:14.048Z,20.30
2022-08-11T17:16:33.236Z,20.10
2022-08-11T17:20:43.212Z,20.10
2022-08-11T17:24:51.492Z,19.90
2022-08-11T17:28:58.920Z,19.90
2022-08-11T17:33:21.728Z,19.80
2022-08-11T17:37:25.448Z,19.70
2022-08-11T17:41:46.254Z,19.60
2022-08-11T17:46:08.119Z,19.50
2022-08-11T17:50:17.044Z,19.30
2022-08-11T17:54:41.862Z,19.20
2022-08-11T17:59:03.336Z,19.10
2022-08-11T18:03:24.944Z,19.00
2022-08-11T18:07:45.586Z,18.90
2022-08-11T18:12:12.202Z,18.80
2022-08-11T18:16:33.986Z,18.80
2022-08-11T18:20:55.744Z,18.70
2022-08-11T18:25:26.313Z,18.60
2022-08-11T18:29:50.906Z,18.60
2022-08-11T18:34:15.079Z,18.50
2022-08-11T18:38:37.251Z,18.40
2022-08-11T18:43:00.590Z,18.40
2022-08-11T18:47:25.851Z,18.30
2022-08-11T18:51:51.671Z,18.30
2022-08-11T18:56:13.061Z,18.20
2022-08-11T19:00:33.762Z,18.10
2022-08-11T19:04:55.673Z,18.10
2022-08-11T19:09:18.859Z,18.00
2022-08-11T19:13:43.653Z,18.00
2022-08-11T19:18:06.168Z,18.00
2022-08-11T19:22:29.043Z,17.90
2022-08-11T19:26:53.341Z,17.90
2022-08-11T19:31:15.051Z,17.80
2022-08-11T19:35:37.682Z,17.80
2022-08-11T19:40:01.249Z,17.70
2022-08-11T19:44:23.282Z,17.70
2022-08-11T19:48:45.728Z,17.60
2022-08-11T19:53:17.161Z,17.60
2022-08-11T19:57:41.087Z,17.50
2022-08-11T20:02:13.427Z,17.50
2022-08-11T20:06:37.567Z,17.50
2022-08-11T20:10:59.961Z,17.50
2022-08-11T20:15:22.105Z,17.50
2022-08-11T20:19:55.465Z,17.50
2022-08-11T20:24:20.618Z,17.40
2022-08-11T20:28:41.687Z,17.40
2022-08-11T20:33:03.963Z,17.40
2022-08-11T20:37:25.524Z,17.30
2022-08-11T20:41:58.951Z,17.30
2022-08-11T20:46:21.548Z,17.20
2022-08-11T20:50:46.039Z,17.20
2022-08-11T20:55:10.800Z,17.20
2022-08-11T20:59:49.529Z,17.20
2022-08-11T21:04:17.760Z,17.20
2022-08-11T21:08:46.227Z,17.10
2022-08-11T21:13:26.139Z,17.10
2022-08-11T21:18:00.504Z,17.10
2022-08-11T21:22:22.049Z,17.00
2022-08-11T21:26:50.800Z,16.80
2022-08-11T21:31:13.053Z,16.60
2022-08-11T21:35:36.324Z,16.40
2022-08-11T21:40:08.305Z,16.30
2022-08-11T21:44:29.170Z,16.10
2022-08-11T21:48:52.201Z,16.00
2022-08-11T21:53:14.948Z,15.90
2022-08-11T21:57:36.630Z,15.80
2022-08-11T22:02:12.762Z,15.70
2022-08-11T22:06:36.830Z,15.50
2022-08-11T22:10:58.646Z,15.40
2022-08-11T22:15:19.407Z,15.30
2022-08-11T22:19:41.805Z,15.20
2022-08-11T22:24:04.817Z,15.20
2022-08-11T22:28:28.409Z,15.10
2022-08-11T22:32:50.122Z,15.10
2022-08-11T22:37:26.966Z,15.00
2022-08-11T22:41:48.259Z,15.00
2022-08-11T22:46:08.785Z,14.90
2022-08-11T22:50:31.299Z,14.80
2022-08-11T22:54:53.282Z,14.80
2022-08-11T22:59:14.676Z,14.80
2022-08-11T23:03:38.575Z,14.70
2022-08-11T23:08:01.053Z,14.70
2022-08-11T23:12:22.666Z,14.70
2022-08-11T23:16:44.377Z,14.60
2022-08-11T23:21:05.384Z,14.70
2022-08-11T23:25:27.002Z,14.70
2022-08-11T23:29:51.643Z,14.70
2022-08-11T23:35:02.822Z,14.70
2022-08-11T23:38:56.307Z,14.70
2022-08-11T23:43:17.186Z,14.70
2022-08-11T23:47:50.547Z,14.70
2022-08-11T23:52:12.017Z,14.70
2022-08-11T23:56:33.419Z,14.70
